Time;durP1;ratioP1;P1;durP2;ratioP2;P2;SDS_P1;SDS_P2;PMS_P1;PMS_P2;Temp;Humidity;BMP_temperature;BMP_pressure;BME280_temperature;BME280_humidity;BME280_pressure;Samples;Min_cycle;Max_cycle;Signal;HPM_P1;HPM_P2
2023/06/10 00:00:41;;;;;;;;;;;;;;;29.34;46.76;101302.25;5059401;28;19920;-54
2023/06/10 00:03:06;;;;;;;;;;;;;;;29.27;46.86;101301.03;5055103;28;19960;-57
2023/06/10 00:05:31;;;;;;;;;;;;;;;29.37;46.63;101305.50;5058312;28;19928;-52
2023/06/10 00:07:56;;;;;;;;;;;;;;;29.11;47.25;101314.38;5059099;28;20010;-54
2023/06/10 00:10:22;;;;;;;;;;;;;;;28.92;47.46;101301.56;5058210;28;20349;-54
2023/06/10 00:12:48;;;;;;;;;;;;;;;28.79;47.70;101297.72;5060665;28;19940;-55
2023/06/10 00:15:13;;;;;;;;;;;;;;;28.90;47.25;101303.81;5058878;28;20009;-57
2023/06/10 00:17:39;;;;;;;;;;;;;;;28.85;47.52;101312.19;5060557;28;19912;-54
2023/06/10 00:20:09;;;;;;;;;;;;;;;28.57;48.00;101312.16;5057977;28;19913;-54
2023/06/10 00:22:34;;;;;;;;;;;;;;;28.47;48.39;101319.53;5057816;28;19928;-57
2023/06/10 00:24:59;;;;;;;;;;;;;;;28.61;48.30;101313.22;5057527;28;19917;-57
2023/06/10 00:27:26;;;;;;;;;;;;;;;28.50;48.54;101318.09;5058626;28;20469;-57
2023/06/10 00:29:52;;;;;;;;;;;;;;;28.46;48.63;101314.31;5058552;28;19913;-60
2023/06/10 00:32:18;;;;;;;;;;;;;;;28.50;48.59;101318.09;5057070;28;19971;-57
2023/06/10 00:34:44;;;;;;;;;;;;;;;28.24;49.18;101310.34;5038557;28;19920;-56
2023/06/10 00:37:10;;;;;;;;;;;;;;;28.29;49.28;101313.00;5057435;28;19917;-55
2023/06/10 00:39:35;;;;;;;;;;;;;;;28.64;48.70;101320.84;5054916;28;19935;-56
2023/06/10 00:42:06;;;;;;;;;;;;;;;28.60;48.71;101312.38;5058568;28;19916;-55
2023/06/10 00:44:32;;;;;;;;;;;;;;;28.47;49.43;101319.53;5036556;28;19917;-55
2023/06/10 00:46:58;;;;;;;;;;;;;;;28.31;49.84;101315.44;5055046;28;19924;-56
2023/06/10 00:49:23;;;;;;;;;;;;;;;28.17;50.05;101315.44;5056627;28;19917;-55
2023/06/10 00:51:50;;;;;;;;;;;;;;;28.17;50.27;101315.44;5040287;28;19976;-58
2023/06/10 00:54:16;;;;;;;;;;;;;;;28.07;50.62;101310.91;5056855;28;19921;-58
2023/06/10 00:56:42;;;;;;;;;;;;;;;28.04;50.98;101312.34;5058244;28;19913;-56
2023/06/10 00:59:08;;;;;;;;;;;;;;;27.98;51.13;101312.75;5041985;28;20104;-54
2023/06/10 01:01:34;;;;;;;;;;;;;;;27.90;51.53;101315.06;5054754;28;19924;-57
2023/06/10 01:04:02;;;;;;;;;;;;;;;27.96;51.76;101315.78;5039260;28;19948;-54
2023/06/10 01:06:48;;;;;;;;;;;;;;;27.90;51.99;101312.31;5038816;28;19916;-54
2023/06/10 01:09:19;;;;;;;;;;;;;;;27.86;52.25;101321.47;5056214;28;19991;-56
2023/06/10 01:11:52;;;;;;;;;;;;;;;27.81;52.64;101313.31;5025178;28;20009;-52
2023/06/10 01:14:20;;;;;;;;;;;;;;;27.83;52.69;101322.06;5021430;28;19940;-55
2023/06/10 01:16:48;;;;;;;;;;;;;;;27.70;53.28;101323.66;5026835;28;19913;-55
2023/06/10 01:19:14;;;;;;;;;;;;;;;27.75;53.26;101315.34;5023581;28;19924;-56
2023/06/10 01:21:40;;;;;;;;;;;;;;;27.74;53.27;101313.72;5027998;28;19940;-56
2023/06/10 01:24:08;;;;;;;;;;;;;;;27.71;53.79;101317.06;5022198;28;19918;-56
2023/06/10 01:26:34;;;;;;;;;;;;;;;27.69;53.51;101327.53;5025630;28;19914;-57
2023/06/10 01:29:04;;;;;;;;;;;;;;;27.61;53.71;101318.84;5021974;28;19948;-55
2023/06/10 01:31:33;;;;;;;;;;;;;;;27.62;53.22;101323.22;5027219;28;19921;-56
2023/06/10 01:34:00;;;;;;;;;;;;;;;27.63;53.25;101326.78;5028588;28;19949;-56
2023/06/10 01:36:27;;;;;;;;;;;;;;;27.49;53.79;101316.53;5021929;28;19918;-56
2023/06/10 01:38:53;;;;;;;;;;;;;;;27.74;53.25;101327.44;5024911;28;19977;-57
2023/06/10 01:41:21;;;;;;;;;;;;;;;27.90;52.48;101326.03;5022885;28;19910;-57
2023/06/10 01:43:47;;;;;;;;;;;;;;;27.79;52.59;101321.84;5024676;28;19914;-57
2023/06/10 01:46:13;;;;;;;;;;;;;;;27.77;52.64;101321.34;5022736;28;19921;-57
2023/06/10 01:48:38;;;;;;;;;;;;;;;27.82;52.04;101318.50;5024789;28;19913;-55
2023/06/10 01:51:05;;;;;;;;;;;;;;;27.74;52.30;101319.19;5024339;28;19913;-55
2023/06/10 01:53:30;;;;;;;;;;;;;;;27.69;52.00;101311.06;5024643;28;19921;-56
2023/06/10 01:55:55;;;;;;;;;;;;;;;27.66;52.12;101317.13;5026285;28;19980;-52
2023/06/10 01:58:22;;;;;;;;;;;;;;;27.61;51.97;101323.53;5024944;28;19928;-56
2023/06/10 02:00:47;;;;;;;;;;;;;;;27.55;51.99;101321.97;5023942;28;19913;-54
2023/06/10 02:03:12;;;;;;;;;;;;;;;27.63;51.61;101321.31;5021596;28;19920;-55
2023/06/10 02:05:38;;;;;;;;;;;;;;;27.78;51.37;101320.22;5022568;28;19942;-52
2023/06/10 02:08:04;;;;;;;;;;;;;;;27.65;51.56;101329.22;5025048;28;19913;-53
2023/06/10 02:10:30;;;;;;;;;;;;;;;27.59;51.29;101321.06;5031895;28;19925;-53
2023/06/10 02:12:56;;;;;;;;;;;;;;;27.61;51.02;101321.59;5055627;28;19928;-55
2023/06/10 02:15:21;;;;;;;;;;;;;;;27.57;50.89;101317.81;5042494;28;20000;-56
2023/06/10 02:17:48;;;;;;;;;;;;;;;27.48;50.78;101325.09;5057059;28;19913;-55
2023/06/10 02:20:14;;;;;;;;;;;;;;;27.52;50.78;101328.91;5038478;28;19912;-52
2023/06/10 02:22:40;;;;;;;;;;;;;;;27.36;51.25;101324.72;5057080;28;19924;-58
2023/06/10 02:25:07;;;;;;;;;;;;;;;27.40;50.92;101326.56;5055503;28;20011;-56
2023/06/10 02:27:33;;;;;;;;;;;;;;;27.39;51.03;101333.19;5038688;28;19936;-57
2023/06/10 02:29:58;;;;;;;;;;;;;;;27.43;50.83;101330.63;5040578;28;19913;-56
2023/06/10 02:32:25;;;;;;;;;;;;;;;27.43;50.32;101333.38;5056238;28;19951;-55
2023/06/10 02:34:51;;;;;;;;;;;;;;;27.33;50.72;101345.34;5035827;28;19913;-54
2023/06/10 02:37:17;;;;;;;;;;;;;;;27.36;50.47;101339.28;5036663;28;19913;-56
2023/06/10 02:39:43;;;;;;;;;;;;;;;27.20;50.49;101333.16;5059496;28;19940;-56
2023/06/10 02:42:11;;;;;;;;;;;;;;;27.18;50.73;101333.47;5037999;28;19920;-56
2023/06/10 02:44:36;;;;;;;;;;;;;;;27.23;50.53;101331.78;5055828;28;19917;-55
2023/06/10 02:47:03;;;;;;;;;;;;;;;27.08;50.80;101330.06;5037048;28;19913;-57
2023/06/10 02:49:30;;;;;;;;;;;;;;;27.03;50.90;101333.69;5037889;28;19920;-57
2023/06/10 02:51:56;;;;;;;;;;;;;;;26.95;50.99;101339.84;5036430;28;19921;-54
2023/06/10 02:54:23;;;;;;;;;;;;;;;26.76;51.28;101335.13;5037407;28;19913;-55
2023/06/10 02:56:49;;;;;;;;;;;;;;;26.82;51.13;101335.88;5039242;28;19913;-55
2023/06/10 02:59:20;;;;;;;;;;;;;;;26.73;51.47;101331.03;5036459;28;20058;-51
2023/06/10 03:01:46;;;;;;;;;;;;;;;26.78;51.44;101330.16;5035722;28;19923;-57
2023/06/10 03:04:13;;;;;;;;;;;;;;;26.82;51.19;101330.38;5039647;28;19919;-55
2023/06/10 03:06:42;;;;;;;;;;;;;;;26.74;51.36;101331.84;5038907;28;19909;-56
2023/06/10 03:09:16;;;;;;;;;;;;;;;26.72;51.42;101331.34;5038944;28;19971;-56
2023/06/10 03:11:45;;;;;;;;;;;;;;;26.40;52.21;101339.09;5036870;28;19948;-56
2023/06/10 03:14:11;;;;;;;;;;;;;;;26.38;52.40;101335.84;5039244;28;19936;-58
2023/06/10 03:16:40;;;;;;;;;;;;;;;26.24;53.01;101335.72;5038720;28;19956;-56
2023/06/10 03:19:07;;;;;;;;;;;;;;;26.59;51.91;101335.59;5036376;28;19924;-55
2023/06/10 03:21:34;;;;;;;;;;;;;;;26.53;52.28;101339.53;5039012;28;19981;-53
2023/06/10 03:24:00;;;;;;;;;;;;;;;26.57;52.07;101332.34;5035984;28;19955;-56
2023/06/10 03:26:27;;;;;;;;;;;;;;;26.56;52.14;101339.72;5037612;28;19917;-57
2023/06/10 03:28:54;;;;;;;;;;;;;;;26.58;52.22;101339.47;5036052;28;20004;-55
2023/06/10 03:31:22;;;;;;;;;;;;;;;26.45;52.77;101339.03;5054920;28;19916;-56
2023/06/10 03:33:47;;;;;;;;;;;;;;;26.46;52.81;101348.88;5036310;28;19913;-57
2023/06/10 03:36:13;;;;;;;;;;;;;;;26.42;53.12;101347.03;5054761;28;20502;-56
2023/06/10 03:38:38;;;;;;;;;;;;;;;26.42;53.47;101352.53;5055198;28;19909;-55
2023/06/10 03:41:06;;;;;;;;;;;;;;;26.42;53.58;101347.84;5038785;28;19919;-56
2023/06/10 03:43:32;;;;;;;;;;;;;;;26.35;53.89;101341.91;5038450;28;19923;-56
2023/06/10 03:45:58;;;;;;;;;;;;;;;26.39;54.00;101353.09;5036279;28;19921;-56
2023/06/10 03:48:23;;;;;;;;;;;;;;;26.35;54.34;101347.38;5038295;28;19917;-56
2023/06/10 03:50:52;;;;;;;;;;;;;;;26.34;54.76;101351.22;5040846;28;19916;-57
2023/06/10 03:53:18;;;;;;;;;;;;;;;26.33;54.74;101358.63;5038743;28;19976;-54
2023/06/10 03:55:45;;;;;;;;;;;;;;;26.20;55.67;101360.13;5054615;28;19913;-56
2023/06/10 03:58:14;;;;;;;;;;;;;;;26.22;56.04;101356.28;5039480;28;19943;-53
2023/06/10 04:00:41;;;;;;;;;;;;;;;26.34;55.67;101356.72;5020708;28;19935;-55
2023/06/10 04:03:09;;;;;;;;;;;;;;;26.36;55.84;101359.16;5056444;28;19973;-56
2023/06/10 04:05:39;;;;;;;;;;;;;;;26.31;56.36;101349.06;5036582;28;19917;-54
2023/06/10 04:08:05;;;;;;;;;;;;;;;26.34;56.81;101351.22;5056130;28;19912;-53
2023/06/10 04:10:30;;;;;;;;;;;;;;;26.40;56.70;101365.69;5053784;28;19924;-54
2023/06/10 04:12:56;;;;;;;;;;;;;;;26.40;56.75;101355.53;5056142;28;19913;-60
2023/06/10 04:15:23;;;;;;;;;;;;;;;26.42;57.06;101361.56;5041920;28;19921;-52
2023/06/10 04:17:50;;;;;;;;;;;;;;;26.39;57.36;101364.03;5042528;28;19918;-56
2023/06/10 04:20:19;;;;;;;;;;;;;;;26.33;57.88;101363.31;5039594;28;20020;-52
2023/06/10 04:22:46;;;;;;;;;;;;;;;26.49;57.62;101372.19;5040944;28;19913;-51
2023/06/10 04:25:14;;;;;;;;;;;;;;;26.46;57.59;101368.09;5040647;28;19933;-57
2023/06/10 04:27:40;;;;;;;;;;;;;;;26.33;58.05;101371.53;5043641;28;19913;-54
2023/06/10 04:30:07;;;;;;;;;;;;;;;26.39;58.43;101370.38;5039752;28;21190;-53
2023/06/10 04:32:35;;;;;;;;;;;;;;;26.45;58.40;101380.16;5040322;28;19921;-55
2023/06/10 04:35:01;;;;;;;;;;;;;;;26.46;58.87;101381.78;5040259;28;19972;-53
2023/06/10 04:37:29;;;;;;;;;;;;;;;26.45;58.75;101384.84;5042337;28;19912;-52
2023/06/10 04:39:55;;;;;;;;;;;;;;;26.31;60.11;101373.75;5041972;28;20146;-56
2023/06/10 04:42:20;;;;;;;;;;;;;;;26.27;60.57;101381.72;5044134;28;19919;-56
2023/06/10 04:44:46;;;;;;;;;;;;;;;26.30;60.79;101380.34;5042575;28;19917;-53
2023/06/10 04:47:11;;;;;;;;;;;;;;;26.32;60.18;101381.66;5040168;28;19917;-55
2023/06/10 04:49:37;;;;;;;;;;;;;;;26.55;59.58;101381.19;5038952;28;19935;-55
2023/06/10 04:52:04;;;;;;;;;;;;;;;26.41;59.64;101381.03;5055801;28;19929;-52
2023/06/10 04:54:33;;;;;;;;;;;;;;;26.51;59.69;101378.19;5039108;28;19951;-52
2023/06/10 04:56:59;;;;;;;;;;;;;;;26.52;59.80;101389.97;5059070;28;19913;-56
2023/06/10 04:59:25;;;;;;;;;;;;;;;26.53;59.51;101388.88;5057262;28;19921;-52
2023/06/10 05:01:50;;;;;;;;;;;;;;;26.51;59.47;101393.81;5056325;28;19980;-55
2023/06/10 05:04:15;;;;;;;;;;;;;;;26.60;59.56;101397.56;5056920;28;19924;-55
2023/06/10 05:06:41;;;;;;;;;;;;;;;26.70;59.04;101391.16;5058448;28;19914;-56
2023/06/10 05:09:07;;;;;;;;;;;;;;;26.54;59.74;101401.47;5056023;28;19913;-56
2023/06/10 05:11:32;;;;;;;;;;;;;;;26.57;60.50;101392.66;5058710;28;19923;-54
2023/06/10 05:13:58;;;;;;;;;;;;;;;26.72;59.80;101395.22;5061145;28;19944;-59
2023/06/10 05:16:23;;;;;;;;;;;;;;;26.56;59.98;101396.53;5058370;28;19917;-55
2023/06/10 05:18:50;;;;;;;;;;;;;;;26.65;60.01;101396.72;5058234;28;19928;-57
2023/06/10 05:21:16;;;;;;;;;;;;;;;26.85;59.33;101398.41;5055693;28;19971;-57
2023/06/10 05:23:42;;;;;;;;;;;;;;;26.74;59.64;101397.69;5055679;28;19921;-54
2023/06/10 05:26:07;;;;;;;;;;;;;;;26.95;58.75;101397.47;5055275;28;19940;-57
2023/06/10 05:28:33;;;;;;;;;;;;;;;26.81;59.01;101408.31;5055613;28;19920;-54
2023/06/10 05:30:58;;;;;;;;;;;;;;;26.73;59.14;101402.34;5055815;28;19913;-55
2023/06/10 05:33:24;;;;;;;;;;;;;;;26.94;59.15;101395.84;5058111;28;19936;-57
2023/06/10 05:35:49;;;;;;;;;;;;;;;26.94;59.19;101399.38;5055497;28;19913;-58
2023/06/10 05:38:15;;;;;;;;;;;;;;;27.01;59.61;101408.09;5059409;28;19980;-56
2023/06/10 05:40:40;;;;;;;;;;;;;;;27.12;59.08;101402.47;5056574;28;19959;-52
2023/06/10 05:43:06;;;;;;;;;;;;;;;27.14;59.09;101400.25;5057236;28;19942;-55
2023/06/10 05:45:31;;;;;;;;;;;;;;;27.15;59.31;101404.63;5057158;28;19988;-55
2023/06/10 05:47:57;;;;;;;;;;;;;;;26.97;59.02;101398.81;5056482;28;19913;-57
2023/06/10 05:50:24;;;;;;;;;;;;;;;26.96;59.64;101396.38;5057841;28;20586;-57
2023/06/10 05:52:49;;;;;;;;;;;;;;;26.87;59.77;101404.41;5056288;28;19921;-55
2023/06/10 05:55:15;;;;;;;;;;;;;;;26.83;60.74;101411.59;5057791;28;19939;-58
2023/06/10 05:57:43;;;;;;;;;;;;;;;26.95;60.00;101409.25;5057408;28;19920;-57
2023/06/10 06:00:09;;;;;;;;;;;;;;;26.93;60.14;101408.72;5055914;28;19920;-54
2023/06/10 06:02:40;;;;;;;;;;;;;;;27.18;59.89;101407.59;5058916;28;19935;-56
2023/06/10 06:05:06;;;;;;;;;;;;;;;27.11;60.09;101403.59;5053980;28;19956;-51
2023/06/10 06:07:32;;;;;;;;;;;;;;;27.19;60.02;101406.50;5056189;28;19919;-52
2023/06/10 06:09:57;;;;;;;;;;;;;;;27.28;60.06;101400.31;5054635;28;19935;-53
2023/06/10 06:12:23;;;;;;;;;;;;;;;27.33;58.86;101400.25;5056010;28;19917;-58
2023/06/10 06:14:49;;;;;;;;;;;;;;;27.14;59.89;101403.00;5054798;28;19913;-55
2023/06/10 06:17:15;;;;;;;;;;;;;;;27.44;58.79;101407.25;5054368;28;19920;-53
2023/06/10 06:19:40;;;;;;;;;;;;;;;27.18;58.50;101404.03;5055703;28;19952;-53
2023/06/10 06:22:05;;;;;;;;;;;;;;;27.31;58.47;101416.22;5058217;28;19917;-54
2023/06/10 06:24:30;;;;;;;;;;;;;;;27.61;58.04;101405.94;5055720;28;19944;-54
2023/06/10 06:26:56;;;;;;;;;;;;;;;27.57;57.72;101411.22;5054553;28;19956;-56
2023/06/10 06:29:21;;;;;;;;;;;;;;;27.65;57.44;101403.41;5054306;28;19917;-56
2023/06/10 06:31:47;;;;;;;;;;;;;;;27.58;58.54;101410.09;5056879;28;19976;-53
2023/06/10 06:34:12;;;;;;;;;;;;;;;27.54;57.77;101411.81;5057182;28;19920;-50
2023/06/10 06:36:37;;;;;;;;;;;;;;;27.63;57.30;101410.00;5056137;28;19953;-55
2023/06/10 06:39:03;;;;;;;;;;;;;;;27.80;56.58;101413.34;5056904;28;19992;-52
2023/06/10 06:41:28;;;;;;;;;;;;;;;27.87;57.16;101417.34;5036878;28;19916;-57
2023/06/10 06:43:54;;;;;;;;;;;;;;;27.81;56.66;101420.47;5056525;28;19916;-49
2023/06/10 06:46:24;;;;;;;;;;;;;;;27.85;56.42;101419.56;5054203;28;19921;-52
2023/06/10 06:48:49;;;;;;;;;;;;;;;27.94;55.95;101421.66;5055976;28;19948;-52
2023/06/10 06:51:15;;;;;;;;;;;;;;;27.97;55.95;101421.06;5055005;28;19996;-56
2023/06/10 06:53:45;;;;;;;;;;;;;;;28.13;55.95;101425.16;5055317;28;19927;-55
2023/06/10 06:56:11;;;;;;;;;;;;;;;27.96;55.90;101419.41;5053051;28;19940;-56
2023/06/10 06:58:37;;;;;;;;;;;;;;;28.11;55.45;101421.88;5055525;28;19913;-51
2023/06/10 07:01:02;;;;;;;;;;;;;;;28.29;54.71;101427.69;5053708;28;19934;-53
2023/06/10 07:03:28;;;;;;;;;;;;;;;28.27;54.74;101429.91;5056359;28;19917;-53
2023/06/10 07:05:54;;;;;;;;;;;;;;;28.36;54.11;101436.34;5059190;28;20522;-53
2023/06/10 07:08:19;;;;;;;;;;;;;;;28.34;54.94;101431.16;5051896;28;19921;-54
2023/06/10 07:10:44;;;;;;;;;;;;;;;28.62;54.36;101435.91;5051112;28;19939;-55
2023/06/10 07:13:10;;;;;;;;;;;;;;;28.76;54.40;101444.16;5055351;28;19923;-55
2023/06/10 07:15:35;;;;;;;;;;;;;;;28.77;54.41;101429.28;5057929;28;19932;-56
2023/06/10 07:18:01;;;;;;;;;;;;;;;28.65;53.72;101440.78;5054745;28;19913;-54
2023/06/10 07:20:27;;;;;;;;;;;;;;;28.83;53.09;101436.31;5055444;28;19913;-56
2023/06/10 07:22:52;;;;;;;;;;;;;;;28.76;52.98;101436.69;5055940;28;19917;-57
2023/06/10 07:25:17;;;;;;;;;;;;;;;28.94;52.31;101441.63;5056199;28;19992;-55
2023/06/10 07:27:43;;;;;;;;;;;;;;;28.92;52.02;101441.94;5056223;28;19912;-55
2023/06/10 07:30:08;;;;;;;;;;;;;;;28.83;51.61;101443.75;5055909;28;19921;-58
2023/06/10 07:32:34;;;;;;;;;;;;;;;28.94;51.40;101447.94;5059628;28;19912;-55
2023/06/10 07:35:00;;;;;;;;;;;;;;;29.00;51.79;101438.47;5036567;28;19928;-55
2023/06/10 07:37:26;;;;;;;;;;;;;;;29.16;50.81;101444.44;5054078;28;19917;-57
2023/06/10 07:39:51;;;;;;;;;;;;;;;29.06;51.06;101444.69;5053962;28;19913;-56
2023/06/10 07:42:17;;;;;;;;;;;;;;;29.25;51.56;101447.31;5035853;28;19913;-56
2023/06/10 07:44:43;;;;;;;;;;;;;;;29.48;51.95;101433.63;5056118;28;19964;-57
2023/06/10 07:47:08;;;;;;;;;;;;;;;29.55;51.42;101441.47;5054689;28;19921;-55
2023/06/10 07:49:33;;;;;;;;;;;;;;;29.67;50.59;101449.19;5059586;28;19909;-54
2023/06/10 07:51:59;;;;;;;;;;;;;;;29.81;50.41;101458.22;5060095;28;19912;-56
2023/06/10 07:54:24;;;;;;;;;;;;;;;29.97;49.84;101452.31;5057245;28;19913;-57
2023/06/10 07:56:49;;;;;;;;;;;;;;;29.90;50.13;101455.53;5067154;28;19935;-55
2023/06/10 07:59:16;;;;;;;;;;;;;;;29.70;50.83;101452.13;5060009;28;19917;-53
2023/06/10 08:01:42;;;;;;;;;;;;;;;29.84;51.38;101452.06;5060527;28;19936;-55
2023/06/10 08:04:08;;;;;;;;;;;;;;;29.93;50.57;101457.66;5041985;28;19944;-57
2023/06/10 08:06:33;;;;;;;;;;;;;;;30.05;49.85;101457.94;5057593;28;19924;-50
2023/06/10 08:08:59;;;;;;;;;;;;;;;30.12;49.43;101457.50;5060023;28;19920;-55
2023/06/10 08:11:28;;;;;;;;;;;;;;;30.09;49.45;101449.84;5058023;28;19960;-56
2023/06/10 08:13:53;;;;;;;;;;;;;;;30.31;49.16;101454.50;5056867;28;19913;-55
2023/06/10 08:16:18;;;;;;;;;;;;;;;30.30;49.33;101452.09;5055475;28;19920;-54
2023/06/10 08:18:44;;;;;;;;;;;;;;;30.45;49.07;101457.22;5058801;28;19940;-54
2023/06/10 08:21:09;;;;;;;;;;;;;;;30.51;48.58;101460.63;5060626;28;19913;-57
2023/06/10 08:23:35;;;;;;;;;;;;;;;30.42;49.00;101454.25;5055176;28;19929;-56
2023/06/10 08:26:01;;;;;;;;;;;;;;;30.44;48.65;101458.31;5055049;28;19924;-52
2023/06/10 08:28:27;;;;;;;;;;;;;;;30.54;48.92;101456.44;5055488;28;19923;-56
2023/06/10 08:30:53;;;;;;;;;;;;;;;30.59;48.79;101457.13;5058976;28;19913;-55
2023/06/10 08:33:18;;;;;;;;;;;;;;;30.75;48.56;101457.53;5063111;28;19920;-55
2023/06/10 08:35:43;;;;;;;;;;;;;;;31.05;48.25;101459.75;5061592;28;19920;-54
2023/06/10 08:38:09;;;;;;;;;;;;;;;30.95;48.56;101460.84;5063171;28;19943;-55
2023/06/10 08:40:34;;;;;;;;;;;;;;;31.13;47.52;101466.41;5059178;28;19935;-50
2023/06/10 08:43:00;;;;;;;;;;;;;;;31.10;47.38;101464.28;5057332;28;19914;-52
2023/06/10 08:45:29;;;;;;;;;;;;;;;31.21;47.87;101467.59;5056474;28;19921;-56
2023/06/10 08:47:56;;;;;;;;;;;;;;;31.30;47.37;101472.00;5064586;28;19984;-54
2023/06/10 08:50:22;;;;;;;;;;;;;;;31.27;47.03;101469.09;5059024;28;19939;-59
2023/06/10 08:52:53;;;;;;;;;;;;;;;31.29;47.32;101473.13;5038927;28;19913;-55
2023/06/10 08:55:25;;;;;;;;;;;;;;;31.45;46.05;101464.38;5056663;28;19920;-57
2023/06/10 08:57:53;;;;;;;;;;;;;;;31.65;45.76;101465.69;5061594;28;19913;-55
2023/06/10 09:00:19;;;;;;;;;;;;;;;31.41;46.63;101478.03;5056369;28;19920;-58
2023/06/10 09:02:45;;;;;;;;;;;;;;;31.55;46.60;101466.81;5056926;28;19936;-56
2023/06/10 09:05:11;;;;;;;;;;;;;;;31.51;46.10;101471.38;5060319;28;19921;-56
2023/06/10 09:07:37;;;;;;;;;;;;;;;31.82;45.36;101470.41;5056531;28;19924;-57
2023/06/10 09:10:06;;;;;;;;;;;;;;;31.89;45.43;101469.94;5056614;28;19917;-57
2023/06/10 09:12:37;;;;;;;;;;;;;;;32.09;45.97;101460.16;5056383;28;19976;-56
2023/06/10 09:15:03;;;;;;;;;;;;;;;32.26;45.44;101466.78;5061482;28;19972;-56
2023/06/10 09:17:28;;;;;;;;;;;;;;;32.54;45.01;101460.91;5037124;28;19921;-57
2023/06/10 09:19:55;;;;;;;;;;;;;;;32.58;44.64;101468.19;5055977;28;19920;-52
2023/06/10 09:22:21;;;;;;;;;;;;;;;32.83;44.59;101468.41;5058176;28;19920;-55
2023/06/10 09:24:47;;;;;;;;;;;;;;;32.80;43.66;101468.28;5060794;28;19921;-59
2023/06/10 09:27:13;;;;;;;;;;;;;;;32.97;44.40;101468.19;5060527;28;19936;-57
2023/06/10 09:29:45;;;;;;;;;;;;;;;33.07;43.40;101472.53;5056327;28;19936;-52
2023/06/10 09:32:11;;;;;;;;;;;;;;;33.13;43.24;101462.91;5057934;28;19913;-57
2023/06/10 09:34:37;;;;;;;;;;;;;;;33.28;43.88;101472.59;5055849;28;19948;-56
2023/06/10 09:37:03;;;;;;;;;;;;;;;33.37;43.63;101471.69;5059769;28;19980;-55
2023/06/10 09:39:28;;;;;;;;;;;;;;;33.87;42.42;101473.59;5060392;28;19935;-57
2023/06/10 09:41:53;;;;;;;;;;;;;;;34.18;42.01;101469.59;5040898;28;19913;-61
2023/06/10 09:44:20;;;;;;;;;;;;;;;34.51;41.54;101464.34;5045579;28;19968;-54
2023/06/10 09:46:46;;;;;;;;;;;;;;;34.83;40.35;101473.72;5057848;28;19935;-58
2023/06/10 09:49:12;;;;;;;;;;;;;;;35.22;39.55;101475.34;5054171;28;19913;-56
2023/06/10 09:51:37;;;;;;;;;;;;;;;35.94;39.10;101477.47;5057528;28;19976;-57
2023/06/10 09:54:03;;;;;;;;;;;;;;;36.24;37.76;101479.06;5058649;28;19920;-58
2023/06/10 09:56:37;;;;;;;;;;;;;;;36.77;36.79;101478.03;5060600;28;19912;-57
2023/06/10 09:59:06;;;;;;;;;;;;;;;37.41;35.89;101486.25;5053634;28;19920;-59
2023/06/10 10:01:33;;;;;;;;;;;;;;;38.14;35.37;101483.75;5058570;28;19919;-58
2023/06/10 10:03:59;;;;;;;;;;;;;;;38.45;34.17;101483.94;5056055;28;19921;-58
2023/06/10 10:06:25;;;;;;;;;;;;;;;38.85;33.75;101476.16;5057050;28;19925;-58
2023/06/10 10:08:50;;;;;;;;;;;;;;;39.53;33.11;101478.31;5058542;28;19924;-57
2023/06/10 10:11:21;;;;;;;;;;;;;;;39.88;31.78;101476.31;5058294;28;20011;-55
2023/06/10 10:13:48;;;;;;;;;;;;;;;40.34;31.67;101478.78;5054549;28;19920;-57
2023/06/10 10:16:17;;;;;;;;;;;;;;;40.71;30.40;101480.72;5058069;28;19971;-57
2023/06/10 10:18:52;;;;;;;;;;;;;;;40.84;30.57;101484.00;5059549;28;19913;-59
2023/06/10 10:21:20;;;;;;;;;;;;;;;41.32;29.55;101482.28;5055163;28;19913;-58
2023/06/10 10:24:07;;;;;;;;;;;;;;;41.89;29.03;101486.50;5055475;28;19909;-55
2023/06/10 10:26:34;;;;;;;;;;;;;;;41.74;29.17;101477.22;5044555;28;19924;-56
2023/06/10 10:29:10;;;;;;;;;;;;;;;41.89;28.80;101480.91;5055408;28;19913;-57
2023/06/10 10:31:37;;;;;;;;;;;;;;;42.16;28.52;101486.19;5059457;28;19916;-57
2023/06/10 10:34:06;;;;;;;;;;;;;;;42.58;28.13;101480.19;5053666;28;19913;-57
2023/06/10 10:36:31;;;;;;;;;;;;;;;42.88;27.42;101476.91;5057341;28;19913;-59
2023/06/10 10:38:58;;;;;;;;;;;;;;;43.10;26.85;101482.47;5057372;28;19912;-59
2023/06/10 10:41:26;;;;;;;;;;;;;;;43.32;26.44;101468.34;5057020;28;19927;-57
2023/06/10 10:43:52;;;;;;;;;;;;;;;43.34;26.68;101471.56;5057108;28;19923;-58
2023/06/10 10:46:17;;;;;;;;;;;;;;;43.61;26.01;101471.03;5055537;28;19916;-56
2023/06/10 10:48:44;;;;;;;;;;;;;;;44.01;25.92;101463.13;5055376;28;19913;-57
2023/06/10 10:51:09;;;;;;;;;;;;;;;44.34;25.71;101472.16;5053827;28;19913;-59
2023/06/10 10:53:39;;;;;;;;;;;;;;;44.28;25.44;101471.00;5056251;28;19919;-58
2023/06/10 10:56:12;;;;;;;;;;;;;;;44.65;24.88;101466.66;5051878;28;19940;-59
2023/06/10 10:58:37;;;;;;;;;;;;;;;44.51;25.03;101475.22;5052739;28;20011;-58
2023/06/10 11:01:12;;;;;;;;;;;;;;;44.93;24.36;101467.56;5056138;28;19920;-60
2023/06/10 11:03:45;;;;;;;;;;;;;;;45.14;24.01;101462.88;5055687;28;19923;-61
2023/06/10 11:06:15;;;;;;;;;;;;;;;45.28;23.60;101463.94;5056034;28;19917;-58
2023/06/10 11:08:40;;;;;;;;;;;;;;;45.50;23.75;101458.81;5054886;28;19917;-60
2023/06/10 11:11:26;;;;;;;;;;;;;;;45.58;23.07;101453.88;5056864;28;20079;-59
2023/06/10 11:14:12;;;;;;;;;;;;;;;45.75;22.98;101463.31;5050542;28;19913;-59
2023/06/10 11:16:42;;;;;;;;;;;;;;;46.07;22.40;101457.16;5055042;28;19924;-60
2023/06/10 11:19:07;;;;;;;;;;;;;;;46.68;21.99;101449.66;5053672;28;19909;-59
2023/06/10 11:21:37;;;;;;;;;;;;;;;46.64;21.86;101451.75;5055798;28;19913;-56
2023/06/10 11:24:11;;;;;;;;;;;;;;;46.73;21.79;101448.34;5054443;28;19913;-60
2023/06/10 11:26:43;;;;;;;;;;;;;;;47.32;21.03;101447.97;5055414;28;19917;-59
2023/06/10 11:29:09;;;;;;;;;;;;;;;47.64;20.06;101452.09;5056674;28;19913;-60
2023/06/10 11:31:39;;;;;;;;;;;;;;;47.66;20.61;101452.47;5053890;28;19971;-60
2023/06/10 11:34:06;;;;;;;;;;;;;;;47.83;20.06;101444.75;5051554;28;19913;-59
2023/06/10 11:36:32;;;;;;;;;;;;;;;48.15;19.66;101448.06;5055857;28;19955;-60
2023/06/10 11:38:58;;;;;;;;;;;;;;;48.43;19.13;101437.19;5055908;28;19913;-60
2023/06/10 11:41:25;;;;;;;;;;;;;;;48.32;19.58;101441.13;5055016;28;19924;-60
2023/06/10 11:43:50;;;;;;;;;;;;;;;48.89;19.30;101442.84;5056013;28;20109;-59
2023/06/10 11:46:16;;;;;;;;;;;;;;;48.76;18.73;101445.63;5055649;28;19920;-59
2023/06/10 11:48:54;;;;;;;;;;;;;;;48.82;19.40;101437.38;5056842;28;19975;-59
2023/06/10 11:51:20;;;;;;;;;;;;;;;49.23;18.87;101438.56;5054484;28;19964;-59
2023/06/10 11:53:49;;;;;;;;;;;;;;;49.49;18.16;101433.69;5056944;28;19909;-59
2023/06/10 11:56:21;;;;;;;;;;;;;;;49.47;17.91;101436.19;5056507;28;19924;-59
2023/06/10 11:58:51;;;;;;;;;;;;;;;49.22;18.34;101432.13;5057911;28;19944;-59
2023/06/10 12:01:21;;;;;;;;;;;;;;;49.17;18.47;101429.84;5054528;28;19940;-60
2023/06/10 12:03:46;;;;;;;;;;;;;;;49.78;17.14;101438.44;5055496;28;19916;-60
2023/06/10 12:06:12;;;;;;;;;;;;;;;50.08;17.74;101427.75;5053362;28;19917;-60
2023/06/10 12:08:41;;;;;;;;;;;;;;;49.97;17.72;101424.47;5055799;28;19913;-60
2023/06/10 12:11:07;;;;;;;;;;;;;;;49.96;17.14;101431.41;5056074;28;19925;-59
2023/06/10 12:13:32;;;;;;;;;;;;;;;50.52;16.51;101417.66;5053684;28;19920;-59
2023/06/10 12:16:09;;;;;;;;;;;;;;;50.35;16.88;101420.72;5053522;28;19920;-60
2023/06/10 12:18:34;;;;;;;;;;;;;;;50.55;17.43;101416.75;5053459;28;19936;-58
2023/06/10 12:21:00;;;;;;;;;;;;;;;50.89;16.78;101414.28;5054956;28;19913;-59
2023/06/10 12:23:25;;;;;;;;;;;;;;;50.44;17.17;101411.47;5051990;28;19913;-59
2023/06/10 12:25:51;;;;;;;;;;;;;;;50.55;17.14;101413.91;5055963;28;19927;-59
2023/06/10 12:28:19;;;;;;;;;;;;;;;50.90;16.46;101407.34;5053842;28;19985;-58
2023/06/10 12:30:44;;;;;;;;;;;;;;;51.18;16.34;101407.47;5054783;28;19913;-60
2023/06/10 12:33:20;;;;;;;;;;;;;;;50.82;16.92;101412.50;5053498;28;19936;-60